• Join FlightAware (Why Join?)
  • Login
  • US Flag GB Flag 
04:58 EDT


 

Airport Tracker/Info


-or-


 

Live Flight TrackerFlight Track Log ✈ SKW5478 ✈ 31-Mar-2012 ✈ KMRY - KSFO

Flight Track Log - Related Links

Times and Time Zones

All times are in EDT time to prevent confusion due to time zone crossing. See the SKW5478 flight status page for this flight to view local times or setup timezone preferences in your user account.

Time Position Orientation Groundspeed Altitude Reporting Facility
EDT Latitude Longitude Course Direction KTS MPH feet Rate Location/Type
20:14 36.6183 -121.8591 325° Northwest  Level FlightAware Approximate
20:15 36.6775 -121.8896 285° West  Level FlightAware Approximate
20:16 36.6833 -121.9167 310° West 183 211 4,900  Level Northern Cal TRACON
20:17 36.7167 -121.9667 310° West 197 227 6,500 1,020 Climbing Northern Cal TRACON
20:18 36.7500 -122.0167 313° West 225 259 7,000 240 Climbing Northern Cal TRACON
20:19 36.8000 -122.0833 321° Northwest 240 276 7,000  Level Northern Cal TRACON
20:20 36.8500 -122.1333 313° West 247 284 7,000  Level Northern Cal TRACON
20:21 36.9000 -122.2000 329° Northwest 252 290 7,000  Level Northern Cal TRACON
20:22 36.9667 -122.2500 329° Northwest 264 304 7,000  Level Northern Cal TRACON
20:23 37.0333 -122.3000 332° Northwest 266 306 7,000  Level Northern Cal TRACON
20:24 37.0833 -122.3333 327° Northwest 266 306 7,000  Level Northern Cal TRACON
20:25 37.1667 -122.4000 332° Northwest 266 306 7,000 -120 Level Northern Cal TRACON
20:26 37.2167 -122.4333 329° Northwest 265 305 6,800 -480 Descending Northern Cal TRACON
20:27 37.2833 -122.4833 329° Northwest 280 322 6,100 -420 Descending Northern Cal TRACON
20:28 37.3500 -122.5333 338° Northwest 278 320 6,000 -60 Descending Northern Cal TRACON
20:29 37.4167 -122.5667 North 280 322 6,000  Level Northern Cal TRACON
20:30 37.5000 -122.5500 22° Northeast 282 325 6,000  Level Northern Cal TRACON
20:31 37.5667 -122.5167 North 280 322 6,000  Level Northern Cal TRACON
20:32 37.6500 -122.5000 25° Northeast 284 327 6,100  Climbing Northern Cal TRACON
20:33 37.7333 -122.4500 28° Northeast 287 330 6,100  Level Northern Cal TRACON
20:34 37.7833 -122.4167 38° Northeast 280 322 6,100  Level Northern Cal TRACON
20:35 37.8333 -122.3667 90° East 233 268 6,100 -300 Level Northern Cal TRACON
20:36 37.8333 -122.2833 180° South 215 247 5,500 -1,140 Descending Northern Cal TRACON
20:37 37.7833 -122.2833 195° South 174 200 3,900 -1,140 Descending Northern Cal TRACON
20:38 37.7333 -122.3000 202° Southwest 167 192 3,200 -660 Descending Northern Cal TRACON
20:39 37.7000 -122.3167 202° Southwest 159 183 2,600 -720 Descending Northern Cal TRACON